Terminal Aerodrome Forecast
Issued by NWS Atlanta, GA

Home | Current Version | Previous Version | Text Only | Print | Product List | Glossary On
Versions: 1 2 3 4 5 6 7 8 9 10 11 12 13 14 15 16 17 18 19 20 21
000
FTUS42 KFFC 261120
TAFCSG
TAF
KCSG 261120Z 2612/2712 00000KT P6SM SCT250
     FM261600 VRB03KT P6SM SCT200
     FM270000 00000KT P6SM SCT150
     FM270900 00000KT P6SM BKN100=

USA.gov is the U.S. government's official web portal to all federal, state and local government web resources and services.